sensor_id;sensor_type;location;lat;lon;timestamp;pressure;altitude;pressure_sealevel;temperature;humidity
65557;BME280;52200;53.490;14.376;2023-05-23T00:00:59;101195.81;;;12.59;83.16
65557;BME280;52200;53.490;14.376;2023-05-23T00:03:25;101188.13;;;12.61;83.00
65557;BME280;52200;53.490;14.376;2023-05-23T00:05:51;101196.63;;;12.60;82.58
65557;BME280;52200;53.490;14.376;2023-05-23T00:08:17;101190.72;;;12.59;82.76
65557;BME280;52200;53.490;14.376;2023-05-23T00:10:43;101193.22;;;12.61;83.57
65557;BME280;52200;53.490;14.376;2023-05-23T00:13:09;101191.47;;;12.63;83.10
65557;BME280;52200;53.490;14.376;2023-05-23T00:15:37;101191.69;;;12.53;83.03
65557;BME280;52200;53.490;14.376;2023-05-23T00:18:03;101191.69;;;12.53;82.87
65557;BME280;52200;53.490;14.376;2023-05-23T00:20:29;101191.69;;;12.53;83.18
65557;BME280;52200;53.490;14.376;2023-05-23T00:22:55;101185.78;;;12.53;83.63
65557;BME280;52200;53.490;14.376;2023-05-23T00:25:23;101192.78;;;12.45;83.97
65557;BME280;52200;53.490;14.376;2023-05-23T00:27:49;101182.69;;;12.41;83.99
65557;BME280;52200;53.490;14.376;2023-05-23T00:30:15;101185.03;;;12.49;83.64
65557;BME280;52200;53.490;14.376;2023-05-23T00:32:41;101176.69;;;12.44;84.08
65557;BME280;52200;53.490;14.376;2023-05-23T00:35:07;101176.13;;;12.33;84.17
65557;BME280;52200;53.490;14.376;2023-05-23T00:37:32;101181.13;;;12.36;84.00
65557;BME280;52200;53.490;14.376;2023-05-23T00:39:58;101179.63;;;12.29;84.18
65557;BME280;52200;53.490;14.376;2023-05-23T00:42:24;101182.34;;;12.22;84.97
65557;BME280;52200;53.490;14.376;2023-05-23T00:44:49;101181.34;;;12.28;84.02
65557;BME280;52200;53.490;14.376;2023-05-23T00:47:15;101186.34;;;12.33;84.27
65557;BME280;52200;53.490;14.376;2023-05-23T00:49:41;101182.16;;;12.29;84.15
65557;BME280;52200;53.490;14.376;2023-05-23T00:52:07;101174.56;;;12.27;84.02
65557;BME280;52200;53.490;14.376;2023-05-23T00:54:33;101178.88;;;12.25;84.22
65557;BME280;52200;53.490;14.376;2023-05-23T00:57:00;101177.16;;;12.25;83.76
65557;BME280;52200;53.490;14.376;2023-05-23T00:59:26;101180.63;;;12.23;83.90
65557;BME280;52200;53.490;14.376;2023-05-23T01:01:53;101174.78;;;12.19;84.25
65557;BME280;52200;53.490;14.376;2023-05-23T01:04:19;101175.59;;;12.21;83.11
65557;BME280;52200;53.490;14.376;2023-05-23T01:06:45;101175.75;;;12.15;83.67
65557;BME280;52200;53.490;14.376;2023-05-23T01:09:14;101166.75;;;12.02;84.40
65557;BME280;52200;53.490;14.376;2023-05-23T01:15:05;101169.38;;;11.99;84.63
65557;BME280;52200;53.490;14.376;2023-05-23T01:17:43;101167.75;;;11.94;84.92
65557;BME280;52200;53.490;14.376;2023-05-23T01:26:02;101164.28;;;11.99;85.03
65557;BME280;52200;53.490;14.376;2023-05-23T01:28:36;101156.69;;;11.96;85.62
65557;BME280;52200;53.490;14.376;2023-05-23T01:31:03;101159.19;;;11.99;85.51
65557;BME280;52200;53.490;14.376;2023-05-23T01:33:31;101161.66;;;12.02;84.93
65557;BME280;52200;53.490;14.376;2023-05-23T01:36:00;101151.53;;;11.99;85.00
65557;BME280;52200;53.490;14.376;2023-05-23T01:38:26;101143.91;;;11.99;84.49
65557;BME280;52200;53.490;14.376;2023-05-23T01:40:52;101155.03;;;11.94;84.37
65557;BME280;52200;53.490;14.376;2023-05-23T01:43:19;101152.47;;;11.94;84.89
65557;BME280;52200;53.490;14.376;2023-05-23T01:45:44;101145.81;;;11.90;84.50
65557;BME280;52200;53.490;14.376;2023-05-23T01:48:12;101144.19;;;11.86;84.75
65557;BME280;52200;53.490;14.376;2023-05-23T01:50:39;101148.47;;;11.84;84.67
65557;BME280;52200;53.490;14.376;2023-05-23T01:53:06;101149.28;;;11.86;85.21
65557;BME280;52200;53.490;14.376;2023-05-23T01:55:33;101153.56;;;11.84;85.54
65557;BME280;52200;53.490;14.376;2023-05-23T01:57:59;101146.69;;;11.88;85.58
65557;BME280;52200;53.490;14.376;2023-05-23T02:00:25;101139.91;;;11.88;85.26
65557;BME280;52200;53.490;14.376;2023-05-23T02:02:51;101145.03;;;11.87;85.14
65557;BME280;52200;53.490;14.376;2023-05-23T02:05:16;101144.88;;;11.93;85.45
65557;BME280;52200;53.490;14.376;2023-05-23T02:07:42;101143.97;;;11.96;84.71
65557;BME280;52200;53.490;14.376;2023-05-23T02:10:08;101139.81;;;11.91;85.67
65557;BME280;52200;53.490;14.376;2023-05-23T02:12:34;101139.28;;;11.78;85.46
65557;BME280;52200;53.490;14.376;2023-05-23T02:14:59;101144.50;;;11.74;85.23
65557;BME280;52200;53.490;14.376;2023-05-23T02:17:25;101138.53;;;11.75;85.22
65557;BME280;52200;53.490;14.376;2023-05-23T02:19:50;101135.22;;;11.71;85.52
65557;BME280;52200;53.490;14.376;2023-05-23T02:22:16;101134.41;;;11.71;85.52
65557;BME280;52200;53.490;14.376;2023-05-23T02:24:41;101137.00;;;11.68;85.72
65557;BME280;52200;53.490;14.376;2023-05-23T02:27:07;101125.16;;;11.67;85.70
65557;BME280;52200;53.490;14.376;2023-05-23T02:29:32;101131.09;;;11.66;85.35
65557;BME280;52200;53.490;14.376;2023-05-23T02:31:58;101120.44;;;11.51;85.22
65557;BME280;52200;53.490;14.376;2023-05-23T02:34:24;101132.25;;;11.54;85.79
65557;BME280;52200;53.490;14.376;2023-05-23T02:36:49;101129.06;;;11.45;85.49
65557;BME280;52200;53.490;14.376;2023-05-23T02:39:15;101128.16;;;11.48;85.83
65557;BME280;52200;53.490;14.376;2023-05-23T02:41:41;101129.97;;;11.43;86.30
65557;BME280;52200;53.490;14.376;2023-05-23T02:44:06;101123.94;;;11.47;87.02
65557;BME280;52200;53.490;14.376;2023-05-23T02:46:32;101129.00;;;11.49;86.86
65557;BME280;52200;53.490;14.376;2023-05-23T02:48:57;101130.53;;;11.54;86.29
65557;BME280;52200;53.490;14.376;2023-05-23T02:51:23;101133.03;;;11.57;86.68
65557;BME280;52200;53.490;14.376;2023-05-23T02:53:48;101126.56;;;11.44;86.36
65557;BME280;52200;53.490;14.376;2023-05-23T02:56:14;101133.94;;;11.55;86.74
65557;BME280;52200;53.490;14.376;2023-05-23T02:58:39;101132.72;;;11.70;86.30
65557;BME280;52200;53.490;14.376;2023-05-23T03:01:05;101120.09;;;11.65;86.06
65557;BME280;52200;53.490;14.376;2023-05-23T03:03:32;101114.34;;;11.58;86.47
65557;BME280;52200;53.490;14.376;2023-05-23T03:05:57;101116.75;;;11.63;85.80
65557;BME280;52200;53.490;14.376;2023-05-23T03:08:23;101109.88;;;11.67;86.43
65557;BME280;52200;53.490;14.376;2023-05-23T03:10:49;101113.88;;;11.77;86.43
65557;BME280;52200;53.490;14.376;2023-05-23T03:13:15;101101.19;;;11.75;85.86
65557;BME280;52200;53.490;14.376;2023-05-23T03:15:40;101100.34;;;11.75;85.76
65557;BME280;52200;53.490;14.376;2023-05-23T03:18:06;101093.25;;;11.86;86.31
65557;BME280;52200;53.490;14.376;2023-05-23T03:20:31;101086.03;;;12.04;85.78
65557;BME280;52200;53.490;14.376;2023-05-23T03:22:57;101091.94;;;12.06;86.08
65557;BME280;52200;53.490;14.376;2023-05-23T03:25:22;101086.22;;;11.98;85.81
65557;BME280;52200;53.490;14.376;2023-05-23T03:27:47;101096.63;;;12.21;85.30
65557;BME280;52200;53.490;14.376;2023-05-23T03:30:13;101088.88;;;12.24;85.59
65557;BME280;52200;53.490;14.376;2023-05-23T03:32:38;101094.63;;;12.31;85.54
65557;BME280;52200;53.490;14.376;2023-05-23T03:35:04;101089.28;;;12.40;85.43
65557;BME280;52200;53.490;14.376;2023-05-23T03:37:30;101085.59;;;12.51;84.63
65557;BME280;52200;53.490;14.376;2023-05-23T03:39:55;101080.97;;;12.64;85.10
65557;BME280;52200;53.490;14.376;2023-05-23T03:42:21;101081.72;;;12.67;84.78
65557;BME280;52200;53.490;14.376;2023-05-23T03:44:46;101078.88;;;12.77;84.54
65557;BME280;52200;53.490;14.376;2023-05-23T03:47:11;101076.25;;;12.80;84.66
65557;BME280;52200;53.490;14.376;2023-05-23T03:49:37;101084.47;;;12.89;84.63
65557;BME280;52200;53.490;14.376;2023-05-23T03:52:02;101084.28;;;12.96;84.74
65557;BME280;52200;53.490;14.376;2023-05-23T03:54:28;101078.56;;;12.87;84.95
65557;BME280;52200;53.490;14.376;2023-05-23T03:56:56;101085.47;;;12.84;85.32
65557;BME280;52200;53.490;14.376;2023-05-23T03:59:22;101084.66;;;13.10;85.00
65557;BME280;52200;53.490;14.376;2023-05-23T04:01:47;101083.31;;;13.27;84.40
65557;BME280;52200;53.490;14.376;2023-05-23T04:04:13;101077.72;;;13.42;84.54
65557;BME280;52200;53.490;14.376;2023-05-23T04:06:38;101074.50;;;13.62;84.04
65557;BME280;52200;53.490;14.376;2023-05-23T04:09:04;101068.81;;;13.79;83.24
65557;BME280;52200;53.490;14.376;2023-05-23T04:11:30;101071.72;;;13.94;83.08
65557;BME280;52200;53.490;14.376;2023-05-23T04:13:56;101074.38;;;14.14;81.72
65557;BME280;52200;53.490;14.376;2023-05-23T04:16:22;101075.50;;;14.31;81.59
65557;BME280;52200;53.490;14.376;2023-05-23T04:18:48;101075.88;;;14.44;80.62
65557;BME280;52200;53.490;14.376;2023-05-23T04:21:14;101073.81;;;14.54;80.77
65557;BME280;52200;53.490;14.376;2023-05-23T04:23:39;101072.88;;;14.56;79.91
65557;BME280;52200;53.490;14.376;2023-05-23T04:26:05;101067.81;;;14.55;80.61
65557;BME280;52200;53.490;14.376;2023-05-23T04:28:30;101062.25;;;14.67;80.71
65557;BME280;52200;53.490;14.376;2023-05-23T04:30:56;101067.72;;;14.80;80.78
65557;BME280;52200;53.490;14.376;2023-05-23T04:33:23;101070.41;;;14.77;79.71
65557;BME280;52200;53.490;14.376;2023-05-23T04:35:48;101065.25;;;14.55;79.14
65557;BME280;52200;53.490;14.376;2023-05-23T04:38:14;101064.06;;;14.63;79.44
65557;BME280;52200;53.490;14.376;2023-05-23T04:40:39;101068.47;;;14.60;78.17
65557;BME280;52200;53.490;14.376;2023-05-23T04:43:05;101066.19;;;14.76;76.16
65557;BME280;52200;53.490;14.376;2023-05-23T04:45:33;101063.47;;;14.80;74.81
65557;BME280;52200;53.490;14.376;2023-05-23T04:47:59;101059.03;;;15.06;74.50
65557;BME280;52200;53.490;14.376;2023-05-23T04:50:24;101063.28;;;15.07;73.55
65557;BME280;52200;53.490;14.376;2023-05-23T04:52:49;101063.53;;;15.22;72.14
65557;BME280;52200;53.490;14.376;2023-05-23T04:55:15;101067.78;;;15.43;71.22
65557;BME280;52200;53.490;14.376;2023-05-23T04:57:40;101057.81;;;15.77;71.27
65557;BME280;52200;53.490;14.376;2023-05-23T05:00:06;101050.19;;;15.96;71.88
65557;BME280;52200;53.490;14.376;2023-05-23T05:02:35;101054.22;;;16.21;70.90
65557;BME280;52200;53.490;14.376;2023-05-23T05:05:02;101054.63;;;16.50;69.67
65557;BME280;52200;53.490;14.376;2023-05-23T05:07:28;101045.34;;;16.09;69.81
65557;BME280;52200;53.490;14.376;2023-05-23T05:09:54;101050.22;;;16.15;68.35
65557;BME280;52200;53.490;14.376;2023-05-23T05:12:19;101041.94;;;16.08;68.34
65557;BME280;52200;53.490;14.376;2023-05-23T05:14:45;101052.28;;;16.07;68.75
65557;BME280;52200;53.490;14.376;2023-05-23T05:17:10;101056.31;;;16.13;67.28
65557;BME280;52200;53.490;14.376;2023-05-23T05:19:37;101051.88;;;16.16;68.23
65557;BME280;52200;53.490;14.376;2023-05-23T05:22:02;101053.19;;;16.25;68.82
65557;BME280;52200;53.490;14.376;2023-05-23T05:24:28;101058.72;;;16.35;69.00
65557;BME280;52200;53.490;14.376;2023-05-23T05:26:54;101055.47;;;16.12;69.74
65557;BME280;52200;53.490;14.376;2023-05-23T05:29:19;101047.28;;;16.23;67.38
65557;BME280;52200;53.490;14.376;2023-05-23T05:31:45;101053.28;;;16.60;66.79
65557;BME280;52200;53.490;14.376;2023-05-23T05:34:11;101046.50;;;16.96;65.36
65557;BME280;52200;53.490;14.376;2023-05-23T05:36:37;101049.50;;;17.04;65.40
65557;BME280;52200;53.490;14.376;2023-05-23T05:39:03;101047.66;;;17.25;65.46
65557;BME280;52200;53.490;14.376;2023-05-23T05:41:28;101051.44;;;17.18;63.98
65557;BME280;52200;53.490;14.376;2023-05-23T05:43:54;101050.75;;;17.14;64.10
65557;BME280;52200;53.490;14.376;2023-05-23T05:46:19;101044.25;;;16.88;64.76
65557;BME280;52200;53.490;14.376;2023-05-23T05:48:45;101041.28;;;17.15;64.34
65557;BME280;52200;53.490;14.376;2023-05-23T05:51:11;101045.31;;;17.03;65.00
65557;BME280;52200;53.490;14.376;2023-05-23T05:53:36;101038.25;;;17.06;65.13
65557;BME280;52200;53.490;14.376;2023-05-23T05:56:02;101038.50;;;17.19;65.40
65557;BME280;52200;53.490;14.376;2023-05-23T05:58:28;101036.03;;;17.18;64.42
65557;BME280;52200;53.490;14.376;2023-05-23T06:00:53;101035.88;;;17.03;65.60
65557;BME280;52200;53.490;14.376;2023-05-23T06:03:19;101036.31;;;17.12;64.94
65557;BME280;52200;53.490;14.376;2023-05-23T06:05:44;101025.03;;;17.49;63.52
65557;BME280;52200;53.490;14.376;2023-05-23T06:08:09;101033.41;;;17.53;64.63
65557;BME280;52200;53.490;14.376;2023-05-23T06:10:36;101028.00;;;17.42;64.98
65557;BME280;52200;53.490;14.376;2023-05-23T06:13:03;101027.38;;;17.54;64.69
65557;BME280;52200;53.490;14.376;2023-05-23T06:15:28;101034.19;;;17.37;65.82
65557;BME280;52200;53.490;14.376;2023-05-23T06:17:54;101022.38;;;17.51;65.68
65557;BME280;52200;53.490;14.376;2023-05-23T06:20:19;101027.69;;;17.48;64.40
65557;BME280;52200;53.490;14.376;2023-05-23T06:22:45;101029.94;;;17.54;65.75
65557;BME280;52200;53.490;14.376;2023-05-23T06:25:10;101029.25;;;17.84;64.90
65557;BME280;52200;53.490;14.376;2023-05-23T06:27:36;101020.16;;;17.94;66.15
65557;BME280;52200;53.490;14.376;2023-05-23T06:30:03;101020.59;;;18.02;63.98
65557;BME280;52200;53.490;14.376;2023-05-23T06:32:29;101020.53;;;17.86;63.26
65557;BME280;52200;53.490;14.376;2023-05-23T06:34:54;101029.97;;;17.70;63.53
65557;BME280;52200;53.490;14.376;2023-05-23T06:37:20;101028.22;;;17.70;63.84
65557;BME280;52200;53.490;14.376;2023-05-23T06:39:45;101022.59;;;17.97;63.71
65557;BME280;52200;53.490;14.376;2023-05-23T06:42:10;101021.75;;;18.13;62.53
65557;BME280;52200;53.490;14.376;2023-05-23T06:44:36;101021.84;;;18.11;63.01
65557;BME280;52200;53.490;14.376;2023-05-23T06:47:01;101021.06;;;17.93;64.37
65557;BME280;52200;53.490;14.376;2023-05-23T06:49:27;101020.69;;;18.01;65.27
65557;BME280;52200;53.490;14.376;2023-05-23T06:51:52;101017.13;;;18.19;63.74
65557;BME280;52200;53.490;14.376;2023-05-23T06:54:18;101009.88;;;17.94;63.23
65557;BME280;52200;53.490;14.376;2023-05-23T06:56:43;101014.13;;;18.27;63.56
65557;BME280;52200;53.490;14.376;2023-05-23T06:59:09;101002.19;;;17.77;63.34
65557;BME280;52200;53.490;14.376;2023-05-23T07:01:35;101008.78;;;17.49;64.83
65557;BME280;52200;53.490;14.376;2023-05-23T07:04:00;101010.56;;;18.14;64.10
65557;BME280;52200;53.490;14.376;2023-05-23T07:06:26;101004.50;;;18.15;62.55
65557;BME280;52200;53.490;14.376;2023-05-23T07:08:52;101006.22;;;18.46;62.83
65557;BME280;52200;53.490;14.376;2023-05-23T07:11:20;101006.34;;;18.75;63.52
65557;BME280;52200;53.490;14.376;2023-05-23T07:13:45;101007.03;;;18.93;61.98
65557;BME280;52200;53.490;14.376;2023-05-23T07:16:11;101003.09;;;18.72;61.07
65557;BME280;52200;53.490;14.376;2023-05-23T07:18:36;101006.84;;;18.66;61.37
65557;BME280;52200;53.490;14.376;2023-05-23T07:21:02;101007.94;;;18.62;61.31
65557;BME280;52200;53.490;14.376;2023-05-23T07:23:31;100998.88;;;18.24;62.21
65557;BME280;52200;53.490;14.376;2023-05-23T07:25:56;101003.34;;;18.67;61.98
65557;BME280;52200;53.490;14.376;2023-05-23T07:28:22;100999.59;;;18.42;62.88
65557;BME280;52200;53.490;14.376;2023-05-23T07:30:47;100993.13;;;18.03;62.12
65557;BME280;52200;53.490;14.376;2023-05-23T07:33:13;100987.06;;;18.20;63.39
65557;BME280;52200;53.490;14.376;2023-05-23T07:35:40;100988.47;;;18.42;63.87
65557;BME280;52200;53.490;14.376;2023-05-23T07:38:05;100988.59;;;18.55;64.36
65557;BME280;52200;53.490;14.376;2023-05-23T07:40:31;100994.59;;;18.55;63.01
65557;BME280;52200;53.490;14.376;2023-05-23T07:42:57;100997.16;;;18.85;63.82
65557;BME280;52200;53.490;14.376;2023-05-23T07:45:22;100989.03;;;18.93;63.15
65557;BME280;52200;53.490;14.376;2023-05-23T07:47:47;100988.03;;;19.10;63.07
65557;BME280;52200;53.490;14.376;2023-05-23T07:50:13;100987.59;;;19.18;62.23
65557;BME280;52200;53.490;14.376;2023-05-23T07:52:39;100980.28;;;18.65;63.54
65557;BME280;52200;53.490;14.376;2023-05-23T07:55:05;100977.75;;;19.25;63.79
65557;BME280;52200;53.490;14.376;2023-05-23T07:57:31;100975.00;;;19.57;62.07
65557;BME280;52200;53.490;14.376;2023-05-23T07:59:56;100978.03;;;19.78;61.08
65557;BME280;52200;53.490;14.376;2023-05-23T08:02:22;100983.38;;;19.60;62.01
65557;BME280;52200;53.490;14.376;2023-05-23T08:04:47;100978.50;;;19.41;62.78
65557;BME280;52200;53.490;14.376;2023-05-23T08:07:13;100983.56;;;19.43;62.13
65557;BME280;52200;53.490;14.376;2023-05-23T08:09:39;100976.50;;;20.17;62.08
65557;BME280;52200;53.490;14.376;2023-05-23T08:12:05;100979.59;;;20.22;60.97
65557;BME280;52200;53.490;14.376;2023-05-23T08:14:31;100980.88;;;20.29;61.44
65557;BME280;52200;53.490;14.376;2023-05-23T08:16:56;100982.28;;;20.48;60.98
65557;BME280;52200;53.490;14.376;2023-05-23T08:19:22;100975.84;;;20.13;60.35
65557;BME280;52200;53.490;14.376;2023-05-23T08:21:47;100980.97;;;19.57;60.66
65557;BME280;52200;53.490;14.376;2023-05-23T08:24:13;100991.47;;;19.83;60.54
65557;BME280;52200;53.490;14.376;2023-05-23T08:26:38;100989.03;;;19.80;61.60
65557;BME280;52200;53.490;14.376;2023-05-23T08:29:04;100989.91;;;19.37;63.11
65557;BME280;52200;53.490;14.376;2023-05-23T08:31:30;100991.41;;;19.27;63.03
65557;BME280;52200;53.490;14.376;2023-05-23T08:33:57;100992.94;;;19.58;63.64
65557;BME280;52200;53.490;14.376;2023-05-23T08:36:23;100994.69;;;19.14;63.08
65557;BME280;52200;53.490;14.376;2023-05-23T08:38:49;100993.00;;;18.99;63.83
65557;BME280;52200;53.490;14.376;2023-05-23T08:41:22;100994.69;;;19.43;64.45
65557;BME280;52200;53.490;14.376;2023-05-23T08:43:48;100988.91;;;19.40;62.53
65557;BME280;52200;53.490;14.376;2023-05-23T08:46:14;100991.84;;;19.62;63.00
65557;BME280;52200;53.490;14.376;2023-05-23T08:48:41;100982.97;;;19.81;63.04
65557;BME280;52200;53.490;14.376;2023-05-23T08:51:09;100993.84;;;20.01;62.65
65557;BME280;52200;53.490;14.376;2023-05-23T08:53:40;100998.88;;;20.02;60.56
65557;BME280;52200;53.490;14.376;2023-05-23T08:56:09;101006.28;;;20.36;61.43
65557;BME280;52200;53.490;14.376;2023-05-23T08:58:35;100998.28;;;20.66;61.64
65557;BME280;52200;53.490;14.376;2023-05-23T09:01:03;101001.06;;;21.03;60.94
65557;BME280;52200;53.490;14.376;2023-05-23T09:03:28;100999.00;;;21.47;59.58
65557;BME280;52200;53.490;14.376;2023-05-23T09:05:54;100998.81;;;21.63;57.93
65557;BME280;52200;53.490;14.376;2023-05-23T09:08:20;101005.78;;;22.11;58.22
65557;BME280;52200;53.490;14.376;2023-05-23T09:10:47;101001.34;;;22.62;56.65
65557;BME280;52200;53.490;14.376;2023-05-23T09:13:16;101009.09;;;23.09;56.01
65557;BME280;52200;53.490;14.376;2023-05-23T09:16:04;101000.66;;;23.52;53.56
65557;BME280;52200;53.490;14.376;2023-05-23T09:18:38;101001.22;;;23.90;53.24
65557;BME280;52200;53.490;14.376;2023-05-23T09:21:04;100996.75;;;23.69;53.20
65557;BME280;52200;53.490;14.376;2023-05-23T09:23:31;100996.03;;;23.78;54.41
65557;BME280;52200;53.490;14.376;2023-05-23T09:26:01;101005.22;;;23.94;53.04
65557;BME280;52200;53.490;14.376;2023-05-23T09:28:27;101001.78;;;23.82;53.51
65557;BME280;52200;53.490;14.376;2023-05-23T09:31:00;101000.91;;;23.49;53.90
65557;BME280;52200;53.490;14.376;2023-05-23T09:36:09;101006.41;;;23.67;53.79
65557;BME280;52200;53.490;14.376;2023-05-23T09:38:39;100995.56;;;23.96;53.14
65557;BME280;52200;53.490;14.376;2023-05-23T09:41:06;100999.19;;;24.37;54.20
65557;BME280;52200;53.490;14.376;2023-05-23T09:43:32;100991.06;;;24.63;51.28
65557;BME280;52200;53.490;14.376;2023-05-23T09:46:07;100987.59;;;25.26;51.81
65557;BME280;52200;53.490;14.376;2023-05-23T09:48:33;100986.47;;;25.19;52.91
65557;BME280;52200;53.490;14.376;2023-05-23T09:51:06;100992.41;;;25.09;52.10
65557;BME280;52200;53.490;14.376;2023-05-23T09:53:31;100996.75;;;23.69;54.62
65557;BME280;52200;53.490;14.376;2023-05-23T09:56:01;100995.47;;;23.63;53.86
65557;BME280;52200;53.490;14.376;2023-05-23T09:58:28;100994.44;;;22.38;55.76
65557;BME280;52200;53.490;14.376;2023-05-23T10:00:55;100993.34;;;21.92;58.57
65557;BME280;52200;53.490;14.376;2023-05-23T10:03:26;100994.59;;;21.86;58.95
65557;BME280;52200;53.490;14.376;2023-05-23T10:05:59;100998.09;;;21.85;59.46
65557;BME280;52200;53.490;14.376;2023-05-23T10:08:42;100995.28;;;21.51;58.82
65557;BME280;52200;53.490;14.376;2023-05-23T10:13:45;101000.63;;;20.84;60.56
65557;BME280;52200;53.490;14.376;2023-05-23T10:16:18;101007.16;;;20.89;61.21
65557;BME280;52200;53.490;14.376;2023-05-23T10:18:48;101004.25;;;20.54;60.87
65557;BME280;52200;53.490;14.376;2023-05-23T10:21:27;101009.75;;;20.89;61.81
65557;BME280;52200;53.490;14.376;2023-05-23T10:23:58;101009.13;;;20.99;61.98
65557;BME280;52200;53.490;14.376;2023-05-23T10:26:24;101015.09;;;20.86;60.61
65557;BME280;52200;53.490;14.376;2023-05-23T10:28:51;101011.47;;;20.76;62.19
65557;BME280;52200;53.490;14.376;2023-05-23T10:31:19;101013.25;;;20.88;61.34
65557;BME280;52200;53.490;14.376;2023-05-23T10:33:51;101015.22;;;20.57;61.77
65557;BME280;52200;53.490;14.376;2023-05-23T10:36:39;101020.00;;;20.36;61.88
65557;BME280;52200;53.490;14.376;2023-05-23T10:39:21;101026.06;;;20.08;63.46
65557;BME280;52200;53.490;14.376;2023-05-23T10:41:59;101026.94;;;20.36;64.35
65557;BME280;52200;53.490;14.376;2023-05-23T10:44:28;101030.81;;;20.28;64.43
65557;BME280;52200;53.490;14.376;2023-05-23T10:46:59;101022.00;;;20.73;64.65
65557;BME280;52200;53.490;14.376;2023-05-23T10:49:50;101035.44;;;20.51;63.72
65557;BME280;52200;53.490;14.376;2023-05-23T10:52:16;101031.88;;;20.39;64.73
65557;BME280;52200;53.490;14.376;2023-05-23T10:54:44;101038.06;;;20.64;64.58
65557;BME280;52200;53.490;14.376;2023-05-23T10:57:14;101040.63;;;20.64;64.55
65557;BME280;52200;53.490;14.376;2023-05-23T10:59:40;101046.09;;;20.86;64.67
65557;BME280;52200;53.490;14.376;2023-05-23T11:02:12;101041.16;;;20.96;63.88
65557;BME280;52200;53.490;14.376;2023-05-23T11:04:41;101041.81;;;21.51;63.60
65557;BME280;52200;53.490;14.376;2023-05-23T11:07:33;101038.47;;;21.88;62.02
65557;BME280;52200;53.490;14.376;2023-05-23T11:10:12;101034.59;;;22.06;60.72
65557;BME280;52200;53.490;14.376;2023-05-23T11:12:44;101032.38;;;22.50;60.26
65557;BME280;52200;53.490;14.376;2023-05-23T11:17:51;101029.56;;;22.53;60.49
65557;BME280;52200;53.490;14.376;2023-05-23T11:20:18;101026.22;;;22.03;60.62
65557;BME280;52200;53.490;14.376;2023-05-23T11:23:07;101026.09;;;22.29;60.17
65557;BME280;52200;53.490;14.376;2023-05-23T11:26:02;101025.94;;;23.03;59.87
65557;BME280;52200;53.490;14.376;2023-05-23T11:28:28;101030.84;;;23.30;58.11
65557;BME280;52200;53.490;14.376;2023-05-23T11:30:56;101025.44;;;23.67;58.18
65557;BME280;52200;53.490;14.376;2023-05-23T11:33:21;101022.19;;;23.98;58.69
65557;BME280;52200;53.490;14.376;2023-05-23T11:35:48;101019.03;;;24.71;55.80
65557;BME280;52200;53.490;14.376;2023-05-23T11:38:15;101021.06;;;25.40;54.92
65557;BME280;52200;53.490;14.376;2023-05-23T11:40:44;101017.00;;;25.26;55.37
65557;BME280;52200;53.490;14.376;2023-05-23T11:43:14;101015.25;;;25.06;54.67
65557;BME280;52200;53.490;14.376;2023-05-23T11:45:41;101016.03;;;24.75;55.50
65557;BME280;52200;53.490;14.376;2023-05-23T11:48:08;101015.63;;;23.82;55.90
65557;BME280;52200;53.490;14.376;2023-05-23T11:50:48;101017.16;;;24.29;55.70
65557;BME280;52200;53.490;14.376;2023-05-23T11:53:15;101011.47;;;24.35;54.78
65557;BME280;52200;53.490;14.376;2023-05-23T11:55:54;101005.19;;;24.05;55.84
65557;BME280;52200;53.490;14.376;2023-05-23T11:58:21;101013.03;;;23.37;56.37
65557;BME280;52200;53.490;14.376;2023-05-23T12:00:47;101004.94;;;22.83;56.31
65557;BME280;52200;53.490;14.376;2023-05-23T12:03:12;101001.53;;;22.94;56.09
65557;BME280;52200;53.490;14.376;2023-05-23T12:05:37;100996.41;;;23.62;55.23
65557;BME280;52200;53.490;14.376;2023-05-23T12:08:03;101001.53;;;22.94;56.25
65557;BME280;52200;53.490;14.376;2023-05-23T12:10:28;101005.31;;;23.01;55.08
65557;BME280;52200;53.490;14.376;2023-05-23T12:12:54;101008.50;;;23.05;53.39
65557;BME280;52200;53.490;14.376;2023-05-23T12:15:25;101008.31;;;23.54;54.81
65557;BME280;52200;53.490;14.376;2023-05-23T12:17:52;101010.59;;;22.77;52.06
65557;BME280;52200;53.490;14.376;2023-05-23T12:20:19;101021.50;;;23.16;51.96
65557;BME280;52200;53.490;14.376;2023-05-23T12:22:45;101023.97;;;23.75;52.94
65557;BME280;52200;53.490;14.376;2023-05-23T12:25:10;101016.09;;;23.42;52.86
65557;BME280;52200;53.490;14.376;2023-05-23T12:27:40;101022.41;;;24.18;51.57
65557;BME280;52200;53.490;14.376;2023-05-23T12:30:09;101022.19;;;23.87;51.70
65557;BME280;52200;53.490;14.376;2023-05-23T12:32:39;101019.34;;;24.45;52.21
65557;BME280;52200;53.490;14.376;2023-05-23T12:35:09;101032.59;;;23.75;50.72
65557;BME280;52200;53.490;14.376;2023-05-23T12:37:44;101023.53;;;23.47;51.19
65557;BME280;52200;53.490;14.376;2023-05-23T12:40:16;101021.94;;;23.10;51.90
65557;BME280;52200;53.490;14.376;2023-05-23T12:42:53;101024.19;;;23.15;53.75
65557;BME280;52200;53.490;14.376;2023-05-23T12:45:25;101015.91;;;22.87;51.17
65557;BME280;52200;53.490;14.376;2023-05-23T12:47:54;101012.00;;;22.81;54.04
65557;BME280;52200;53.490;14.376;2023-05-23T12:50:20;101010.44;;;23.71;53.01
65557;BME280;52200;53.490;14.376;2023-05-23T12:52:46;101008.78;;;23.25;53.17
65557;BME280;52200;53.490;14.376;2023-05-23T12:55:12;101014.19;;;23.90;53.76
65557;BME280;52200;53.490;14.376;2023-05-23T12:57:37;101012.09;;;23.95;51.86